Time;durP1;ratioP1;P1;durP2;ratioP2;P2;SDS_P1;SDS_P2;PMS_P1;PMS_P2;Temp;Humidity;BMP_temperature;BMP_pressure;BME280_temperature;BME280_humidity;BME280_pressure;Samples;Min_cycle;Max_cycle;Signal;HPM_P1;HPM_P2
2023/09/19 00:00:58;;;;;;;13.90;11.50;;;;;;;19.14;76.14;97281.16;106555;1266;22530;-75
2023/09/19 00:03:38;;;;;;;12.30;11.10;;;;;;;19.15;76.14;97280.53;106520;1280;25380;-75
2023/09/19 00:06:08;;;;;;;11.20;10.10;;;;;;;19.15;75.99;97280.00;106462;1280;22552;-76
2023/09/19 00:08:37;;;;;;;11.40;10.20;;;;;;;19.17;76.07;97281.68;106485;1280;22611;-75
2023/09/19 00:11:06;;;;;;;11.50;10.40;;;;;;;19.20;76.24;97280.70;106491;1258;23642;-76
2023/09/19 00:13:35;;;;;;;12.30;11.00;;;;;;;19.23;76.24;97276.77;106497;1280;22623;-77
2023/09/19 00:16:11;;;;;;;11.80;10.60;;;;;;;19.24;76.22;97274.05;106560;1274;25345;-75
2023/09/19 00:18:39;;;;;;;15.40;11.80;;;;;;;19.24;76.26;97271.00;106567;1280;22591;-75
2023/09/19 00:21:07;;;;;;;11.70;10.40;;;;;;;19.23;76.23;97268.16;106482;1280;22546;-76
2023/09/19 00:23:35;;;;;;;11.70;10.40;;;;;;;19.23;76.17;97262.70;106528;1266;22612;-77
2023/09/19 00:26:04;;;;;;;12.40;11.30;;;;;;;19.22;76.11;97258.33;106573;1265;22671;-77
2023/09/19 00:28:32;;;;;;;13.50;11.10;;;;;;;19.19;76.06;97256.34;106536;1265;26555;-76
2023/09/19 00:31:01;;;;;;;12.80;11.50;;;;;;;19.17;76.09;97257.80;106372;1280;196156;-74
2023/09/19 00:33:32;;;;;;;12.70;11.30;;;;;;;19.14;76.19;97253.92;106499;1280;22642;-75
2023/09/19 00:36:04;;;;;;;13.50;10.80;;;;;;;19.13;76.18;97247.22;106481;1270;22545;-75
2023/09/19 00:38:32;;;;;;;12.20;10.60;;;;;;;19.14;76.22;97249.33;106903;1277;25288;-76
2023/09/19 00:41:00;;;;;;;11.80;9.90;;;;;;;19.17;76.61;97240.86;106469;1277;23355;-76
2023/09/19 00:43:29;;;;;;;11.90;10.40;;;;;;;19.19;76.65;97238.00;106509;1275;24356;-75
2023/09/19 00:45:57;;;;;;;10.90;9.90;;;;;;;19.20;76.53;97235.35;106572;1275;22530;-76
2023/09/19 00:48:27;;;;;;;12.80;11.60;;;;;;;19.22;76.46;97233.83;106475;1275;22559;-76
2023/09/19 00:50:59;;;;;;;13.60;11.00;;;;;;;19.23;76.42;97228.13;106536;1268;23375;-76
2023/09/19 00:53:30;;;;;;;11.20;10.10;;;;;;;19.24;76.36;97227.30;106555;1270;22587;-76
2023/09/19 00:55:58;;;;;;;11.80;10.70;;;;;;;19.25;76.22;97228.40;106572;1269;22530;-75
2023/09/19 00:58:32;;;;;;;12.00;10.90;;;;;;;19.25;76.16;97222.63;106487;1280;22536;-76
2023/09/19 01:01:03;;;;;;;12.80;10.70;;;;;;;19.22;76.09;97219.01;106675;1280;22544;-75
2023/09/19 01:03:31;;;;;;;13.20;11.50;;;;;;;19.20;76.14;97217.41;106533;1271;22475;-75
2023/09/19 01:06:03;;;;;;;12.30;11.00;;;;;;;19.17;76.15;97223.77;106607;1274;25304;-75
2023/09/19 01:08:31;;;;;;;12.70;10.50;;;;;;;19.15;76.35;97218.43;106464;1265;23352;-75
2023/09/19 01:11:08;;;;;;;11.60;10.40;;;;;;;19.15;76.56;97216.23;106508;1273;25492;-75
2023/09/19 01:13:44;;;;;;;13.30;11.10;;;;;;;19.16;76.53;97217.83;106507;1265;22544;-75
2023/09/19 01:16:39;;;;;;;11.40;10.30;;;;;;;19.15;76.64;97219.45;106452;1280;23334;-75
2023/09/19 01:19:20;;;;;;;11.50;10.30;;;;;;;19.13;76.90;97221.92;106483;1275;22576;-75
2023/09/19 01:22:13;;;;;;;12.80;11.20;;;;;;;19.10;77.07;97217.52;106456;1280;25511;-76
2023/09/19 01:25:04;;;;;;;13.00;11.60;;;;;;;19.04;77.30;97218.31;106452;1280;25492;-76
2023/09/19 01:27:44;;;;;;;12.50;11.20;;;;;;;18.97;77.27;97218.46;106480;1271;22646;-76
2023/09/19 01:30:17;;;;;;;13.00;11.40;;;;;;;18.93;77.35;97211.45;106509;1277;22530;-74
2023/09/19 01:32:46;;;;;;;12.50;11.30;;;;;;;18.92;77.78;97213.46;106502;1280;22652;-75
2023/09/19 01:35:14;;;;;;;14.30;11.60;;;;;;;18.87;77.96;97208.48;106472;1280;24397;-75
2023/09/19 01:37:43;;;;;;;13.10;11.80;;;;;;;18.83;78.05;97204.32;106488;1268;26606;-75
2023/09/19 01:40:17;;;;;;;14.00;12.40;;;;;;;18.79;78.06;97198.33;106618;1265;22579;-75
2023/09/19 01:43:03;;;;;;;14.50;12.30;;;;;;;18.72;78.18;97194.55;106560;1280;24452;-75
2023/09/19 01:45:43;;;;;;;13.00;11.70;;;;;;;18.64;78.31;97190.06;106551;1280;22537;-75
2023/09/19 01:48:28;;;;;;;13.90;11.90;;;;;;;18.56;78.57;97191.44;106515;1265;22570;-74
2023/09/19 01:51:00;;;;;;;13.60;12.20;;;;;;;18.51;78.90;97191.84;106531;1265;22524;-75
2023/09/19 01:53:35;;;;;;;13.20;11.90;;;;;;;18.49;79.27;97194.92;106603;1279;24347;-75
2023/09/19 01:56:08;;;;;;;15.30;11.90;;;;;;;18.47;79.89;97192.16;106413;1266;22553;-76
2023/09/19 01:58:45;;;;;;;14.00;12.50;;;;;;;18.45;80.18;97193.38;106530;1265;25386;-75
2023/09/19 02:01:18;;;;;;;13.00;11.70;;;;;;;18.42;80.12;97194.98;106453;1276;22604;-75
2023/09/19 02:03:48;;;;;;;13.80;12.40;;;;;;;18.41;80.61;97195.50;106567;1280;25284;-76
2023/09/19 02:06:18;;;;;;;15.80;11.10;;;;;;;18.38;80.84;97191.33;106544;1265;22598;-75
2023/09/19 02:08:47;;;;;;;13.90;11.30;;;;;;;18.38;81.09;97188.20;106522;1280;25569;-75
2023/09/19 02:11:15;;;;;;;11.50;10.50;;;;;;;18.38;81.46;97187.73;106466;1265;25476;-75
2023/09/19 02:13:44;;;;;;;13.70;12.50;;;;;;;18.37;81.38;97191.39;106462;1266;22646;-75
2023/09/19 02:16:12;;;;;;;15.80;12.50;;;;;;;18.34;82.42;97191.35;106472;1277;22520;-75
2023/09/19 02:18:41;;;;;;;14.50;13.10;;;;;;;18.30;82.55;97193.16;106433;1280;22532;-75
2023/09/19 02:21:12;;;;;;;16.90;12.50;;;;;;;18.23;82.75;97190.95;106458;1265;24210;-76
2023/09/19 02:23:41;;;;;;;13.00;11.70;;;;;;;18.20;83.30;97193.45;106488;1267;22533;-74
2023/09/19 02:26:09;;;;;;;13.20;10.90;;;;;;;18.16;83.97;97192.78;106538;1273;24209;-75
2023/09/19 02:28:37;;;;;;;13.30;12.00;;;;;;;18.15;83.93;97189.44;106460;1280;23703;-76
2023/09/19 02:31:05;;;;;;;17.70;12.50;;;;;;;18.15;84.07;97187.41;106501;1259;22642;-75
2023/09/19 02:33:35;;;;;;;14.10;12.80;;;;;;;18.13;84.74;97188.23;106459;1273;24235;-76
2023/09/19 02:36:03;;;;;;;14.20;12.40;;;;;;;18.10;84.99;97188.34;106525;1280;22533;-75
2023/09/19 02:38:32;;;;;;;14.60;11.60;;;;;;;18.05;85.52;97180.38;106564;1280;22552;-75
2023/09/19 02:41:00;;;;;;;14.20;12.10;;;;;;;18.04;86.03;97183.16;106495;1265;25453;-75
2023/09/19 02:43:28;;;;;;;15.20;13.70;;;;;;;17.99;87.05;97181.99;106512;1271;22635;-76
2023/09/19 02:45:57;;;;;;;14.60;13.10;;;;;;;17.92;87.44;97183.66;106473;1280;22594;-76
2023/09/19 02:48:25;;;;;;;13.00;11.80;;;;;;;17.86;87.73;97184.03;106950;1280;22623;-76
2023/09/19 02:50:53;;;;;;;13.70;12.30;;;;;;;17.81;88.14;97179.42;106390;1278;23773;-76
2023/09/19 02:53:22;;;;;;;13.30;11.90;;;;;;;17.79;88.36;97177.67;106443;1271;22527;-75
2023/09/19 02:55:54;;;;;;;13.50;12.10;;;;;;;17.76;88.40;97174.81;106425;1271;22571;-76
2023/09/19 02:58:23;;;;;;;14.50;12.70;;;;;;;17.76;88.43;97180.02;106479;1280;22658;-75
2023/09/19 03:00:51;;;;;;;17.90;13.10;;;;;;;17.76;88.82;97177.84;106555;1265;24357;-75
2023/09/19 03:03:20;;;;;;;17.30;14.70;;;;;;;17.75;89.04;97180.55;106459;1270;24187;-75
2023/09/19 03:05:48;;;;;;;20.30;14.40;;;;;;;17.71;89.42;97170.13;106473;1265;22581;-75
2023/09/19 03:08:19;;;;;;;16.60;13.50;;;;;;;17.64;89.49;97166.42;106553;1280;25281;-75
2023/09/19 03:10:48;;;;;;;15.40;12.60;;;;;;;17.60;89.60;97157.41;106468;1278;22582;-75
2023/09/19 03:13:16;;;;;;;12.70;11.50;;;;;;;17.60;89.82;97150.95;106508;1274;22540;-74
2023/09/19 03:15:47;;;;;;;13.50;12.10;;;;;;;17.61;90.43;97144.83;106486;1280;22534;-76
2023/09/19 03:18:17;;;;;;;13.60;12.20;;;;;;;17.63;90.56;97142.91;106675;1280;22597;-75
2023/09/19 03:20:54;;;;;;;13.40;11.80;;;;;;;17.63;91.28;97138.55;106837;1275;22636;-76
2023/09/19 03:23:23;;;;;;;12.50;11.30;;;;;;;17.64;91.35;97138.18;106713;1273;25366;-75
2023/09/19 03:25:56;;;;;;;13.60;12.20;;;;;;;17.66;91.82;97145.21;106535;1269;25290;-75
2023/09/19 03:28:24;;;;;;;15.20;11.70;;;;;;;17.69;91.99;97146.20;106586;1275;22617;-75
2023/09/19 03:31:04;;;;;;;12.70;11.20;;;;;;;17.73;92.44;97149.38;106484;1275;22785;-77
2023/09/19 03:33:34;;;;;;;13.40;12.00;;;;;;;17.76;93.49;97152.06;106581;1278;22537;-76
2023/09/19 03:36:05;;;;;;;14.30;12.70;;;;;;;17.74;93.31;97152.98;106478;1280;24381;-76
2023/09/19 03:38:34;;;;;;;13.30;12.00;;;;;;;17.76;93.58;97154.95;106433;1275;22539;-77
2023/09/19 03:41:03;;;;;;;16.00;12.40;;;;;;;17.76;96.65;97158.33;106829;1270;22575;-75
2023/09/19 03:43:33;;;;;;;15.40;13.90;;;;;;;17.70;96.21;97165.83;106458;1277;24177;-76
2023/09/19 03:46:04;;;;;;;19.00;17.20;;;;;;;17.66;96.63;97174.73;106518;1270;23005;-75
2023/09/19 03:48:33;;;;;;;25.10;22.60;;;;;;;17.60;96.59;97172.13;106557;1263;22965;-76
2023/09/19 03:51:02;;;;;;;25.30;22.10;;;;;;;17.54;96.68;97174.42;106475;1272;22546;-75
2023/09/19 03:53:31;;;;;;;18.70;16.80;;;;;;;17.46;96.42;97168.84;106440;1276;22657;-75
2023/09/19 03:56:00;;;;;;;16.30;14.80;;;;;;;17.39;96.29;97167.00;106406;1280;22523;-76
2023/09/19 03:58:29;;;;;;;17.20;15.10;;;;;;;17.39;96.37;97162.95;106508;1270;22542;-76
2023/09/19 04:00:58;;;;;;;15.40;13.90;;;;;;;17.42;98.20;97157.17;106485;1278;22547;-76
2023/09/19 04:03:34;;;;;;;17.80;14.00;;;;;;;17.39;100.00;97150.59;106580;1271;22653;-75
2023/09/19 04:06:04;;;;;;;14.70;13.00;;;;;;;17.33;99.23;97151.86;106542;1280;22639;-77
2023/09/19 04:08:32;;;;;;;16.80;14.10;;;;;;;17.31;98.67;97145.61;106539;1277;22468;-79
2023/09/19 04:11:00;;;;;;;14.70;13.20;;;;;;;17.33;100.00;97144.39;106496;1280;22530;-77
2023/09/19 04:13:29;;;;;;;15.40;13.00;;;;;;;17.30;99.62;97145.98;106526;1270;25345;-78
2023/09/19 04:15:57;;;;;;;15.00;13.30;;;;;;;17.33;99.47;97143.55;106522;1280;25344;-75
2023/09/19 04:18:26;;;;;;;14.30;12.80;;;;;;;17.37;99.17;97144.16;106436;1275;24279;-75
2023/09/19 04:20:54;;;;;;;15.80;14.10;;;;;;;17.39;99.14;97142.88;106534;1273;24244;-76
2023/09/19 04:23:22;;;;;;;15.70;13.50;;;;;;;17.43;99.22;97142.64;106486;1278;22536;-76
2023/09/19 04:25:51;;;;;;;17.10;13.40;;;;;;;17.47;99.32;97148.94;106458;1271;22595;-76
2023/09/19 04:28:19;;;;;;;19.40;17.50;;;;;;;17.51;99.38;97143.55;106462;1266;24929;-77
2023/09/19 04:30:47;;;;;;;15.80;14.40;;;;;;;17.54;99.36;97141.42;106525;1270;23451;-77
2023/09/19 04:33:16;;;;;;;14.90;13.00;;;;;;;17.56;99.50;97137.56;106530;1280;25286;-76
2023/09/19 04:35:44;;;;;;;14.50;13.00;;;;;;;17.57;99.71;97138.52;106426;1268;22586;-76
2023/09/19 04:38:12;;;;;;;15.10;13.60;;;;;;;17.60;99.98;97146.98;106422;1280;22671;-77
2023/09/19 04:40:40;;;;;;;12.90;13.90;;;;;;;17.65;100.00;97141.40;106456;1281;22557;-77
2023/09/19 04:43:08;;;;;;;15.10;12.20;;;;;;;17.64;100.00;97138.81;106465;1277;25422;-76
2023/09/19 04:45:39;;;;;;;13.30;12.00;;;;;;;17.63;100.00;97138.33;106434;1281;25880;-75
2023/09/19 04:48:08;;;;;;;12.70;11.50;;;;;;;17.66;100.00;97136.34;106511;1269;24391;-76
2023/09/19 04:50:37;;;;;;;15.00;13.50;;;;;;;17.69;100.00;97132.27;106459;1270;24326;-76
2023/09/19 04:53:05;;;;;;;15.10;12.80;;;;;;;17.72;100.00;97134.80;106461;1264;22577;-76
2023/09/19 04:55:33;;;;;;;14.80;12.90;;;;;;;17.70;100.00;97137.89;106419;1269;26633;-77
2023/09/19 04:58:02;;;;;;;14.70;13.30;;;;;;;17.73;100.00;97135.36;106478;1281;24279;-75
2023/09/19 05:00:30;;;;;;;15.20;13.70;;;;;;;17.75;100.00;97137.89;106460;1281;22547;-77
2023/09/19 05:02:58;;;;;;;16.00;14.40;;;;;;;17.78;100.00;97138.19;106473;1281;24383;-75
2023/09/19 05:05:28;;;;;;;15.50;14.10;;;;;;;17.80;100.00;97138.17;106496;1267;22553;-75
2023/09/19 05:07:56;;;;;;;16.00;14.40;;;;;;;17.81;100.00;97140.59;106436;1268;22530;-75
2023/09/19 05:10:25;;;;;;;16.20;14.50;;;;;;;17.84;100.00;97143.36;106435;1281;22638;-75
2023/09/19 05:12:53;;;;;;;13.60;12.40;;;;;;;17.86;100.00;97145.03;106471;1281;22538;-80
2023/09/19 05:15:21;;;;;;;16.60;14.90;;;;;;;17.96;100.00;97148.00;106787;1281;23913;-79
2023/09/19 05:17:51;;;;;;;13.10;11.80;;;;;;;18.16;100.00;97146.52;106758;1271;22579;-79
2023/09/19 05:20:32;;;;;;;;;;;;;;;18.37;100.00;97150.64;106759;1265;22532;-78
2023/09/19 05:23:12;;;;;;;17.40;15.80;;;;;;;18.36;100.00;97152.80;106410;1280;22547;-78
2023/09/19 05:25:40;;;;;;;19.80;17.90;;;;;;;18.24;100.00;97156.21;106748;1271;22660;-79
2023/09/19 05:28:14;;;;;;;19.70;17.60;;;;;;;18.15;100.00;97159.35;106855;1276;22776;-78
2023/09/19 05:30:43;;;;;;;17.10;15.50;;;;;;;18.07;100.00;97158.23;106460;1271;22551;-78
2023/09/19 05:33:18;;;;;;;13.60;12.30;;;;;;;18.01;100.00;97156.63;106854;1265;25357;-82
2023/09/19 05:35:48;;;;;;;12.00;10.90;;;;;;;17.94;100.00;97162.05;107074;1257;23314;-78
2023/09/19 05:38:18;;;;;;;11.90;10.80;;;;;;;17.86;100.00;97159.29;107041;1277;22751;-81
2023/09/19 05:40:46;;;;;;;12.60;11.50;;;;;;;17.79;100.00;97158.61;107208;1267;25543;-81
2023/09/19 05:43:16;;;;;;;11.60;10.50;;;;;;;17.77;100.00;97156.92;107027;1280;22607;-80
2023/09/19 05:45:45;;;;;;;15.80;12.00;;;;;;;17.74;100.00;97158.98;106936;1270;22954;-80
2023/09/19 05:48:15;;;;;;;14.20;12.40;;;;;;;17.75;100.00;97157.89;106530;1266;22640;-79
2023/09/19 05:50:48;;;;;;;13.10;11.70;;;;;;;17.75;100.00;97162.66;106473;1263;25373;-80
2023/09/19 05:53:18;;;;;;;13.20;11.90;;;;;;;17.76;100.00;97165.55;106523;1280;24335;-80
2023/09/19 05:55:46;;;;;;;14.60;13.20;;;;;;;17.79;100.00;97168.48;106457;1278;22530;-80
2023/09/19 05:58:17;;;;;;;15.20;13.80;;;;;;;17.80;100.00;97164.23;106507;1280;24341;-80
2023/09/19 06:00:47;;;;;;;15.00;13.50;;;;;;;17.79;100.00;97165.86;106457;1267;22561;-80
2023/09/19 06:03:17;;;;;;;15.90;14.50;;;;;;;17.79;100.00;97168.73;106509;1279;22541;-80
2023/09/19 06:05:46;;;;;;;14.80;13.30;;;;;;;17.77;100.00;97169.80;106491;1280;24361;-80
2023/09/19 06:08:14;;;;;;;14.90;13.40;;;;;;;17.78;100.00;97168.34;106451;1274;24351;-80
2023/09/19 06:10:42;;;;;;;15.00;13.60;;;;;;;17.78;100.00;97176.41;106392;1265;25449;-80
2023/09/19 06:13:10;;;;;;;15.50;14.00;;;;;;;17.77;100.00;97174.13;106384;1268;22561;-80
2023/09/19 06:15:40;;;;;;;17.60;16.00;;;;;;;17.76;100.00;97171.45;106581;1278;22646;-80
2023/09/19 06:18:15;;;;;;;19.30;17.50;;;;;;;17.76;100.00;97171.77;106533;1280;22535;-80
2023/09/19 06:20:44;;;;;;;18.70;16.90;;;;;;;17.76;100.00;97170.67;106398;1271;22643;-80
2023/09/19 06:23:13;;;;;;;19.80;17.90;;;;;;;17.77;100.00;97178.42;106554;1280;22615;-80
2023/09/19 06:25:43;;;;;;;16.40;14.80;;;;;;;17.75;100.00;97174.17;106511;1274;22657;-81
2023/09/19 06:28:14;;;;;;;20.30;18.50;;;;;;;17.72;100.00;97175.68;106854;1280;22659;-81
2023/09/19 06:30:44;;;;;;;15.80;14.30;;;;;;;17.71;100.00;97177.21;106847;1280;22538;-80
2023/09/19 06:33:12;;;;;;;15.60;14.10;;;;;;;17.70;100.00;97184.44;106763;1280;26689;-80
2023/09/19 06:35:46;;;;;;;16.80;15.20;;;;;;;17.70;100.00;97185.85;106470;1280;22703;-80
2023/09/19 06:38:15;;;;;;;18.80;17.20;;;;;;;17.66;100.00;97187.57;106511;1272;22533;-80
2023/09/19 06:40:43;;;;;;;19.60;17.90;;;;;;;17.64;100.00;97193.05;106465;1271;23033;-81
2023/09/19 06:43:12;;;;;;;21.00;19.10;;;;;;;17.65;100.00;97190.81;106463;1280;25441;-81
2023/09/19 06:45:40;;;;;;;22.60;20.60;;;;;;;17.65;100.00;97195.48;106756;1280;22577;-81
2023/09/19 06:48:09;;;;;;;19.80;18.10;;;;;;;17.60;100.00;97196.71;106880;1276;22537;-82
2023/09/19 06:50:38;;;;;;;17.10;15.60;;;;;;;17.58;100.00;97202.98;106918;1280;22537;-81
2023/09/19 06:53:07;;;;;;;18.10;16.40;;;;;;;17.55;100.00;97204.03;107099;1271;22531;-81
2023/09/19 06:55:35;;;;;;;17.60;16.00;;;;;;;17.53;100.00;97204.92;106391;1280;23609;-81
2023/09/19 06:58:05;;;;;;;17.40;15.80;;;;;;;17.50;100.00;97202.21;106764;1280;22557;-81
2023/09/19 07:00:35;;;;;;;19.00;16.90;;;;;;;17.49;100.00;97206.95;106813;1280;25174;-81
2023/09/19 07:03:07;;;;;;;20.40;18.30;;;;;;;17.47;100.00;97213.44;106813;1278;22537;-82
2023/09/19 07:05:42;;;;;;;21.40;19.30;;;;;;;17.49;100.00;97215.52;106767;1280;22537;-82
2023/09/19 07:08:12;;;;;;;22.40;19.20;;;;;;;17.46;100.00;97221.99;106822;1280;22749;-83
2023/09/19 07:10:48;;;;;;;22.70;20.60;;;;;;;17.44;100.00;97227.39;106901;1266;22569;-81
2023/09/19 07:13:17;;;;;;;24.00;21.70;;;;;;;17.41;100.00;97234.10;106863;1280;25240;-81
2023/09/19 07:15:49;;;;;;;23.20;20.80;;;;;;;17.42;100.00;97234.05;106773;1271;22533;-81
2023/09/19 07:18:19;;;;;;;23.30;21.10;;;;;;;17.37;100.00;97238.37;106790;1280;23837;-80
2023/09/19 07:20:50;;;;;;;25.10;22.90;;;;;;;17.35;100.00;97247.77;106478;1271;22544;-81
2023/09/19 07:23:21;;;;;;;25.60;23.30;;;;;;;17.31;100.00;97252.43;106466;1280;22611;-79
2023/09/19 07:25:50;;;;;;;25.40;22.90;;;;;;;17.30;100.00;97261.50;106539;1270;25419;-81
2023/09/19 07:28:19;;;;;;;26.70;24.20;;;;;;;17.27;100.00;97267.97;106851;1265;25395;-81
2023/09/19 07:30:47;;;;;;;28.40;25.70;;;;;;;17.23;100.00;97271.87;106861;1280;22580;-82
2023/09/19 07:33:15;;;;;;;26.60;24.20;;;;;;;17.18;100.00;97280.17;106837;1280;22571;-81
2023/09/19 07:35:46;;;;;;;23.90;21.40;;;;;;;17.15;100.00;97293.55;106899;1279;22535;-80
2023/09/19 07:38:14;;;;;;;19.00;17.10;;;;;;;17.04;100.00;97302.35;107022;1280;24408;-79
2023/09/19 07:40:44;;;;;;;19.50;17.80;;;;;;;16.91;100.00;97311.15;106531;1265;22626;-80
2023/09/19 07:43:12;;;;;;;20.70;18.60;;;;;;;16.80;100.00;97317.52;106364;1280;22558;-80
2023/09/19 07:45:41;;;;;;;17.80;16.10;;;;;;;16.76;100.00;97328.38;106494;1280;23017;-80
2023/09/19 07:48:14;;;;;;;17.50;15.70;;;;;;;16.72;100.00;97342.88;106855;1280;25523;-81
2023/09/19 07:50:43;;;;;;;17.40;15.80;;;;;;;16.65;100.00;97340.42;106916;1279;22530;-81
2023/09/19 07:53:13;;;;;;;18.60;16.60;;;;;;;16.60;100.00;97345.20;106840;1280;22649;-80
2023/09/19 07:55:43;;;;;;;18.00;16.30;;;;;;;16.57;100.00;97350.44;106615;1280;22661;-82
2023/09/19 07:58:13;;;;;;;22.20;19.30;;;;;;;16.55;100.00;97352.80;106929;1280;22530;-81
2023/09/19 08:00:41;;;;;;;23.90;20.50;;;;;;;16.56;100.00;97357.16;107263;1278;22601;-81
2023/09/19 08:03:14;;;;;;;22.90;20.60;;;;;;;16.59;100.00;97361.43;107524;1280;25294;-81
2023/09/19 08:05:46;;;;;;;21.10;19.00;;;;;;;16.63;100.00;97363.63;107290;1275;25284;-81
2023/09/19 08:08:14;;;;;;;22.00;19.70;;;;;;;16.68;100.00;97365.78;106913;1280;24234;-81
2023/09/19 08:10:45;;;;;;;20.80;18.70;;;;;;;16.68;100.00;97364.46;106581;1279;22730;-80
2023/09/19 08:13:17;;;;;;;22.20;19.50;;;;;;;16.70;100.00;97367.36;106570;1265;22529;-80
2023/09/19 08:15:45;;;;;;;20.40;18.10;;;;;;;16.71;100.00;97368.63;106699;1279;24207;-81
2023/09/19 08:18:15;;;;;;;20.40;17.80;;;;;;;16.72;100.00;97370.38;106640;1273;25241;-82
2023/09/19 08:20:50;;;;;;;18.20;16.30;;;;;;;16.74;100.00;97372.07;106484;1259;25499;-81
2023/09/19 08:23:20;;;;;;;19.00;17.30;;;;;;;16.75;100.00;97374.27;106773;1272;24225;-81
2023/09/19 08:25:48;;;;;;;18.00;16.30;;;;;;;16.76;100.00;97375.94;106720;1273;22532;-81
2023/09/19 08:28:22;;;;;;;17.30;15.60;;;;;;;16.77;100.00;97380.57;106798;1272;25492;-81
2023/09/19 08:30:51;;;;;;;;;;;;;;;16.77;100.00;97382.90;106661;1280;24230;-81
2023/09/19 08:33:19;;;;;;;24.90;16.80;;;;;;;16.75;100.00;97385.77;106831;1279;25239;-81
2023/09/19 08:35:47;;;;;;;16.10;14.50;;;;;;;16.76;100.00;97385.41;106825;1279;24243;-81
2023/09/19 08:38:15;;;;;;;16.30;14.50;;;;;;;16.76;100.00;97381.29;106806;1279;22660;-81
2023/09/19 08:40:43;;;;;;;14.40;13.00;;;;;;;16.77;100.00;97391.36;106775;1279;22608;-80
2023/09/19 08:43:12;;;;;;;17.80;13.40;;;;;;;16.77;100.00;97394.34;106896;1280;22663;-80
2023/09/19 08:45:41;;;;;;;15.00;12.90;;;;;;;16.78;100.00;97393.87;106856;1265;24251;-81
2023/09/19 08:48:29;;;;;;;14.80;12.50;;;;;;;16.80;100.00;97404.18;106852;1267;22545;-79
2023/09/19 08:51:06;;;;;;;12.70;11.40;;;;;;;16.78;100.00;97408.55;106471;1270;22531;-79
2023/09/19 08:53:59;;;;;;;14.10;10.60;;;;;;;16.77;100.00;97405.19;106532;1275;23342;-80
2023/09/19 08:56:29;;;;;;;14.40;9.70;;;;;;;16.76;100.00;97405.95;106873;1279;24232;-80
2023/09/19 08:59:01;;;;;;;12.40;10.60;;;;;;;16.75;100.00;97404.34;107009;1275;22533;-80
2023/09/19 09:01:32;;;;;;;11.80;10.00;;;;;;;16.73;100.00;97405.20;106922;1280;22583;-80
2023/09/19 09:04:02;;;;;;;10.30;9.00;;;;;;;16.72;100.00;97406.21;106880;1281;22598;-81
2023/09/19 09:06:32;;;;;;;10.00;8.60;;;;;;;16.72;100.00;97409.08;106452;1278;24218;-80
2023/09/19 09:09:01;;;;;;;9.00;7.90;;;;;;;16.69;100.00;97411.75;106542;1280;22650;-80
2023/09/19 09:11:33;;;;;;;12.40;8.30;;;;;;;16.69;100.00;97414.98;106527;1280;22548;-80
2023/09/19 09:14:01;;;;;;;12.00;7.60;;;;;;;16.66;100.00;97415.52;106891;1280;22574;-80
2023/09/19 09:16:30;;;;;;;10.60;8.10;;;;;;;16.64;100.00;97416.27;106995;1269;23181;-79
2023/09/19 09:18:59;;;;;;;10.90;7.70;;;;;;;16.62;100.00;97420.34;106599;1280;22547;-80
2023/09/19 09:21:28;;;;;;;15.00;8.10;;;;;;;16.64;100.00;97419.21;106479;1280;24220;-79
2023/09/19 09:23:56;;;;;;;17.30;8.10;;;;;;;16.64;100.00;97426.60;106811;1267;24235;-80
2023/09/19 09:26:47;;;;;;;10.60;6.90;;;;;;;16.64;100.00;97423.02;106882;1277;25616;-80
2023/09/19 09:29:15;;;;;;;12.60;7.60;;;;;;;16.65;100.00;97422.97;106404;1280;24222;-79
2023/09/19 09:31:48;;;;;;;9.00;6.40;;;;;;;16.67;100.00;97422.64;106432;1269;22586;-80
2023/09/19 09:34:16;;;;;;;8.70;6.20;;;;;;;16.68;100.00;97423.91;106487;1279;25567;-80
2023/09/19 09:36:48;;;;;;;10.70;6.20;;;;;;;16.69;100.00;97425.73;106320;1280;24353;-80
2023/09/19 09:39:31;;;;;;;11.20;7.20;;;;;;;16.69;100.00;97426.26;106476;1266;22541;-80
2023/09/19 09:41:59;;;;;;;20.20;12.90;;;;;;;16.67;100.00;97426.37;106492;1277;22747;-80
2023/09/19 09:44:31;;;;;;;11.60;7.40;;;;;;;16.68;100.00;97432.28;106480;1267;22642;-80
2023/09/19 09:47:27;;;;;;;12.00;8.40;;;;;;;16.65;100.00;97435.01;106847;1257;24321;-80
2023/09/19 09:54:33;;;;;;;10.90;6.20;;;;;;;16.67;100.00;97438.96;106908;1280;24285;-80
2023/09/19 09:57:23;;;;;;;8.00;5.40;;;;;;;16.64;100.00;97435.77;106882;1280;23253;-79
2023/09/19 09:59:53;;;;;;;8.10;5.90;;;;;;;16.66;100.00;97440.27;106537;1280;22533;-80
2023/09/19 10:02:40;;;;;;;8.60;5.80;;;;;;;16.67;100.00;97441.23;106535;1267;22546;-80
2023/09/19 10:07:51;;;;;;;7.20;5.90;;;;;;;16.80;100.00;97441.89;106871;1269;25314;-79
2023/09/19 10:13:13;;;;;;;8.00;5.50;;;;;;;16.94;100.00;97447.05;106434;1280;25353;-80
2023/09/19 10:15:50;;;;;;;9.10;6.20;;;;;;;17.02;100.00;97452.76;106521;1279;25481;-80
2023/09/19 10:18:24;;;;;;;7.60;6.00;;;;;;;16.99;100.00;97456.05;106487;1279;25250;-80
2023/09/19 10:20:54;;;;;;;11.60;6.70;;;;;;;17.03;100.00;97456.23;106517;1280;22561;-80
2023/09/19 10:23:27;;;;;;;9.30;6.60;;;;;;;17.06;100.00;97458.61;106526;1261;22613;-80
2023/09/19 10:25:57;;;;;;;9.60;6.80;;;;;;;17.10;100.00;97454.29;106562;1280;25196;-80
2023/09/19 10:28:28;;;;;;;10.60;6.90;;;;;;;17.08;100.00;97460.94;106522;1270;24736;-80
2023/09/19 10:30:57;;;;;;;9.20;7.30;;;;;;;17.09;100.00;97460.41;106548;1279;23136;-80
2023/09/19 10:33:25;;;;;;;9.00;7.10;;;;;;;17.12;100.00;97463.51;106714;1265;22547;-80
2023/09/19 10:35:59;;;;;;;11.10;7.40;;;;;;;17.15;100.00;97465.84;106763;1273;22532;-80
2023/09/19 10:38:28;;;;;;;10.30;7.50;;;;;;;17.14;100.00;97471.58;106559;1267;25310;-80
2023/09/19 10:41:00;;;;;;;12.10;7.00;;;;;;;17.13;100.00;97471.70;106843;1280;25325;-80
2023/09/19 10:43:35;;;;;;;9.20;7.10;;;;;;;17.13;100.00;97474.02;106553;1279;25408;-80
2023/09/19 10:46:10;;;;;;;8.90;7.80;;;;;;;17.11;100.00;97476.00;106851;1265;23905;-80
2023/09/19 10:48:43;;;;;;;10.50;7.40;;;;;;;17.12;100.00;97482.80;106893;1268;23799;-80
2023/09/19 10:51:16;;;;;;;7.60;6.80;;;;;;;17.10;100.00;97482.45;106926;1267;24405;-81
2023/09/19 10:53:55;;;;;;;9.50;7.10;;;;;;;17.08;100.00;97484.89;106931;1279;22862;-80
2023/09/19 10:56:32;;;;;;;9.10;6.90;;;;;;;17.05;100.00;97487.55;106882;1279;22533;-80
2023/09/19 10:59:12;;;;;;;9.60;7.70;;;;;;;17.06;100.00;97486.95;106758;1276;23142;-80
2023/09/19 11:01:47;;;;;;;10.30;7.10;;;;;;;17.09;100.00;97494.69;106856;1276;22537;-81
2023/09/19 11:04:26;;;;;;;14.70;8.00;;;;;;;17.08;100.00;97498.87;106833;1266;22541;-81
2023/09/19 11:07:12;;;;;;;13.00;8.30;;;;;;;17.08;100.00;97501.67;106810;1280;25343;-81
2023/09/19 11:09:53;;;;;;;12.40;9.30;;;;;;;17.05;100.00;97503.46;106546;1267;22579;-79
2023/09/19 11:12:40;;;;;;;15.70;9.10;;;;;;;17.02;100.00;97504.33;106482;1267;22644;-80
2023/09/19 11:15:10;;;;;;;12.60;8.90;;;;;;;17.01;100.00;97504.22;106882;1280;22657;-80
2023/09/19 11:17:42;;;;;;;10.00;7.70;;;;;;;17.04;100.00;97504.77;106883;1273;25391;-81
2023/09/19 11:22:58;;;;;;;11.30;8.10;;;;;;;17.04;100.00;97507.41;106811;1274;25477;-80
2023/09/19 11:25:48;;;;;;;11.60;8.10;;;;;;;17.03;100.00;97506.38;106823;1280;23261;-81
2023/09/19 11:28:17;;;;;;;11.60;8.20;;;;;;;17.06;100.00;97504.58;106840;1280;24377;-79
2023/09/19 11:30:52;;;;;;;10.70;7.80;;;;;;;17.09;100.00;97503.33;106455;1279;23017;-80
2023/09/19 11:33:33;;;;;;;11.60;8.60;;;;;;;17.11;100.00;97504.94;106495;1279;22992;-80
2023/09/19 11:36:16;;;;;;;11.80;8.90;;;;;;;17.11;100.00;97505.39;106572;1280;22770;-79
2023/09/19 11:38:44;;;;;;;12.70;9.20;;;;;;;17.11;100.00;97506.95;106350;1268;22550;-80